Time;durP1;ratioP1;P1;durP2;ratioP2;P2;SDS_P1;SDS_P2;PMS_P1;PMS_P2;Temp;Humidity;BMP_temperature;BMP_pressure;BME280_temperature;BME280_humidity;BME280_pressure;Samples;Min_cycle;Max_cycle;Signal;HPM_P1;HPM_P2
2021/04/24 00:01:34;;;;;;;10.70;9.03;;;5.40;99.90;;;;;;5051702;28;20191;-77
2021/04/24 00:04:01;;;;;;;11.90;9.70;;;5.40;99.90;;;;;;5049932;28;20211;-77
2021/04/24 00:06:28;;;;;;;12.50;9.13;;;5.30;99.90;;;;;;5049881;28;20214;-77
2021/04/24 00:08:56;;;;;;;12.57;9.53;;;5.30;99.90;;;;;;5051145;28;20215;-76
2021/04/24 00:11:23;;;;;;;12.87;9.23;;;5.20;99.90;;;;;;5050877;28;20565;-77
2021/04/24 00:13:50;;;;;;;10.30;9.30;;;5.10;99.90;;;;;;5050015;28;20301;-77
2021/04/24 00:16:16;;;;;;;13.10;10.00;;;5.10;99.90;;;;;;5051377;28;20207;-77
2021/04/24 00:18:43;;;;;;;13.07;9.80;;;5.00;99.90;;;;;;5051009;28;20230;-77
2021/04/24 00:21:09;;;;;;;12.37;9.13;;;5.00;99.90;;;;;;5049513;28;20365;-77
2021/04/24 00:23:35;;;;;;;11.70;9.07;;;5.00;99.90;;;;;;5052028;28;20476;-77
2021/04/24 00:26:03;;;;;;;9.07;8.17;;;5.00;99.90;;;;;;5053484;28;20453;-77
2021/04/24 00:28:29;;;;;;;9.53;8.60;;;5.00;99.90;;;;;;5053151;28;20473;-77
2021/04/24 00:30:55;;;;;;;9.67;8.60;;;5.00;99.90;;;;;;5054267;28;20922;-77
2021/04/24 00:33:22;;;;;;;12.03;9.47;;;4.90;99.90;;;;;;5054900;28;20426;-77
2021/04/24 00:35:48;;;;;;;8.77;8.00;;;4.90;99.90;;;;;;5054420;28;20750;-76
2021/04/24 00:38:15;;;;;;;11.70;8.57;;;4.90;99.90;;;;;;5067475;28;20498;-77
2021/04/24 00:40:41;;;;;;;12.00;9.20;;;4.80;99.90;;;;;;5053018;28;20446;-77
2021/04/24 00:43:08;;;;;;;9.60;8.63;;;4.80;99.90;;;;;;5053101;28;20199;-77
2021/04/24 00:45:35;;;;;;;10.10;8.70;;;4.80;99.90;;;;;;5054045;28;20503;-77
2021/04/24 00:48:02;;;;;;;10.67;9.40;;;4.80;99.90;;;;;;5052902;28;21082;-77
2021/04/24 00:50:31;;;;;;;11.77;8.93;;;4.70;99.90;;;;;;5052627;28;20453;-76
2021/04/24 00:52:58;;;;;;;11.43;9.03;;;4.60;99.90;;;;;;5054260;28;20437;-77
2021/04/24 00:55:25;;;;;;;10.37;9.30;;;4.60;99.90;;;;;;5054207;28;20440;-76
2021/04/24 00:57:52;;;;;;;9.70;8.70;;;4.50;99.90;;;;;;5052906;28;20907;-77
2021/04/24 01:00:22;;;;;;;10.20;9.13;;;4.50;99.90;;;;;;5052548;28;20444;-77
2021/04/24 01:02:49;;;;;;;10.43;9.20;;;4.40;99.90;;;;;;5052756;28;20544;-77
2021/04/24 01:05:20;;;;;;;11.33;10.23;;;4.40;99.90;;;;;;5052601;28;20477;-77
2021/04/24 01:07:46;;;;;;;12.10;10.30;;;4.30;99.90;;;;;;5054097;28;20926;-77
2021/04/24 01:10:15;;;;;;;10.87;9.77;;;4.30;99.90;;;;;;5052617;28;20503;-77
2021/04/24 01:12:42;;;;;;;12.43;9.53;;;4.30;99.90;;;;;;5052626;28;20461;-77
2021/04/24 01:15:09;;;;;;;10.70;9.10;;;4.20;99.90;;;;;;5053878;28;20436;-77
2021/04/24 01:17:38;;;;;;;10.50;9.50;;;4.20;99.90;;;;;;5052559;28;20452;-77
2021/04/24 01:20:06;;;;;;;10.97;9.93;;;4.20;99.90;;;;;;5052153;28;20450;-77
2021/04/24 01:22:34;;;;;;;14.03;10.53;;;4.10;99.90;;;;;;5049492;28;20441;-77
2021/04/24 01:25:00;;;;;;;10.73;9.67;;;4.10;99.90;;;;;;5052133;28;20465;-77
2021/04/24 01:27:27;;;;;;;10.50;9.47;;;4.10;99.90;;;;;;5052241;28;20452;-76
2021/04/24 01:29:53;;;;;;;14.40;10.77;;;4.10;99.90;;;;;;5053234;28;20457;-77
2021/04/24 01:32:20;;;;;;;12.37;11.07;;;4.10;99.90;;;;;;5053612;28;20442;-77
2021/04/24 01:34:46;;;;;;;14.57;11.07;;;4.10;99.90;;;;;;5052398;28;20430;-77
2021/04/24 01:37:12;;;;;;;12.03;10.80;;;4.10;99.90;;;;;;5052710;28;20448;-78
2021/04/24 01:39:39;;;;;;;11.97;10.77;;;4.10;99.90;;;;;;5052930;28;20523;-77
2021/04/24 01:42:06;;;;;;;14.37;10.17;;;4.00;99.90;;;;;;5053442;28;20441;-77
2021/04/24 01:44:33;;;;;;;11.10;10.03;;;4.00;99.90;;;;;;5054358;28;20476;-78
2021/04/24 01:46:59;;;;;;;13.87;10.70;;;3.90;99.90;;;;;;5054017;28;20445;-77
2021/04/24 01:49:26;;;;;;;11.20;9.70;;;3.90;99.90;;;;;;5051709;28;20540;-77
2021/04/24 01:51:52;;;;;;;14.37;10.47;;;3.90;99.90;;;;;;5052514;28;20453;-77
2021/04/24 01:54:19;;;;;;;10.67;9.73;;;3.90;99.90;;;;;;5054711;28;20539;-78
2021/04/24 01:56:48;;;;;;;13.20;10.90;;;3.90;99.90;;;;;;5053272;28;20489;-78
2021/04/24 01:59:15;;;;;;;13.00;10.87;;;3.80;99.90;;;;;;5046568;28;20486;-77
2021/04/24 02:01:43;;;;;;;11.63;10.27;;;3.80;99.90;;;;;;5054000;28;20437;-77
2021/04/24 02:04:09;;;;;;;11.43;9.70;;;3.80;99.90;;;;;;5054696;28;20790;-78
2021/04/24 02:06:35;;;;;;;10.40;9.30;;;3.90;99.90;;;;;;5054133;28;20437;-77
2021/04/24 02:09:02;;;;;;;13.93;10.27;;;3.80;99.90;;;;;;5052992;28;20908;-77
2021/04/24 02:11:28;;;;;;;12.83;10.70;;;3.90;99.90;;;;;;5053573;28;20436;-78
2021/04/24 02:13:55;;;;;;;10.93;9.63;;;3.90;99.90;;;;;;5052605;28;20467;-78
2021/04/24 02:16:22;;;;;;;11.10;9.53;;;3.90;99.90;;;;;;5053993;28;20444;-78
2021/04/24 02:18:48;;;;;;;15.30;10.60;;;3.90;99.90;;;;;;5052614;28;20473;-77
2021/04/24 02:21:15;;;;;;;10.83;9.83;;;3.90;99.90;;;;;;5052116;28;20496;-78
2021/04/24 02:23:41;;;;;;;13.97;9.70;;;3.80;99.90;;;;;;5052496;28;20468;-78
2021/04/24 02:26:09;;;;;;;11.40;10.17;;;3.80;99.90;;;;;;5052054;28;20495;-78
2021/04/24 02:28:36;;;;;;;13.87;10.50;;;3.80;99.90;;;;;;5052408;28;20480;-77
2021/04/24 02:31:04;;;;;;;10.83;9.83;;;3.80;99.90;;;;;;5051968;28;20875;-78
2021/04/24 02:33:30;;;;;;;14.80;11.37;;;3.70;99.90;;;;;;5052140;28;20453;-78
2021/04/24 02:35:58;;;;;;;11.43;9.80;;;3.70;99.90;;;;;;5052279;28;20491;-78
2021/04/24 02:38:27;;;;;;;11.43;10.30;;;3.70;99.90;;;;;;5053168;28;20984;-78
2021/04/24 02:40:56;;;;;;;11.83;10.10;;;3.70;99.90;;;;;;5051845;28;20969;-78
2021/04/24 02:43:23;;;;;;;11.03;9.93;;;3.70;99.90;;;;;;5053569;28;20437;-79
2021/04/24 02:45:49;;;;;;;10.70;9.60;;;3.70;99.90;;;;;;5051702;28;20833;-78
2021/04/24 02:48:17;;;;;;;11.93;10.73;;;3.60;99.90;;;;;;5077194;22;20928;-77
2021/04/24 02:50:45;;;;;;;14.47;10.60;;;3.60;99.90;;;;;;5049712;28;20978;-79
2021/04/24 02:53:11;;;;;;;11.90;10.60;;;3.40;99.90;;;;;;5031633;28;20453;-78
2021/04/24 02:55:38;;;;;;;11.73;10.60;;;3.40;99.90;;;;;;5052430;28;20428;-77
2021/04/24 02:58:04;;;;;;;12.17;10.87;;;3.40;99.90;;;;;;5036022;28;20455;-77
2021/04/24 03:00:31;;;;;;;11.80;10.07;;;3.40;99.90;;;;;;5022911;28;20484;-77
2021/04/24 03:03:02;;;;;;;11.40;10.20;;;3.30;99.90;;;;;;5027053;28;20459;-77
2021/04/24 03:05:30;;;;;;;12.10;10.83;;;3.30;99.90;;;;;;5040936;28;20487;-76
2021/04/24 03:07:56;;;;;;;11.03;10.00;;;3.30;99.90;;;;;;5028540;28;20477;-76
2021/04/24 03:10:24;;;;;;;11.27;10.20;;;3.30;99.90;;;;;;5029284;28;20473;-77
2021/04/24 03:12:50;;;;;;;10.83;9.70;;;3.20;99.90;;;;;;5030655;28;20442;-77
2021/04/24 03:15:17;;;;;;;11.27;10.07;;;3.10;99.90;;;;;;5046580;28;20449;-77
2021/04/24 03:17:44;;;;;;;10.87;9.80;;;3.10;99.90;;;;;;5030751;28;20446;-76
2021/04/24 03:20:12;;;;;;;10.73;9.80;;;3.00;99.90;;;;;;5030544;28;20466;-76
2021/04/24 03:22:40;;;;;;;10.00;9.00;;;3.00;99.90;;;;;;5031129;28;20432;-76
2021/04/24 03:25:08;;;;;;;10.73;9.73;;;2.90;99.90;;;;;;5046149;28;20477;-76
2021/04/24 03:27:35;;;;;;;10.83;9.83;;;2.90;99.90;;;;;;5030597;28;20448;-77
2021/04/24 03:30:03;;;;;;;11.93;10.73;;;2.90;99.90;;;;;;5030233;28;20462;-76
2021/04/24 03:32:29;;;;;;;11.03;9.93;;;2.90;99.90;;;;;;5029073;28;20462;-77
2021/04/24 03:34:56;;;;;;;11.00;10.00;;;2.90;99.90;;;;;;5029289;28;20450;-77
2021/04/24 03:37:22;;;;;;;12.43;11.20;;;3.00;99.90;;;;;;5028542;28;20440;-77
2021/04/24 03:39:49;;;;;;;14.00;10.90;;;3.00;99.90;;;;;;5030492;28;20456;-77
2021/04/24 03:42:15;;;;;;;11.00;10.00;;;2.90;99.90;;;;;;5022857;28;20453;-77
2021/04/24 03:44:42;;;;;;;12.90;10.50;;;2.90;99.90;;;;;;5032528;28;20468;-77
2021/04/24 03:47:09;;;;;;;13.10;10.53;;;2.80;99.90;;;;;;5019931;28;20532;-77
2021/04/24 03:49:36;;;;;;;13.80;10.20;;;2.90;99.90;;;;;;5017641;28;20483;-77
2021/04/24 03:52:03;;;;;;;12.47;11.00;;;2.80;99.90;;;;;;5018580;28;20466;-77
2021/04/24 03:54:30;;;;;;;14.53;10.80;;;2.80;99.90;;;;;;5017884;28;20532;-77
2021/04/24 03:56:57;;;;;;;10.23;9.33;;;2.80;99.90;;;;;;5020913;28;20789;-76
2021/04/24 03:59:24;;;;;;;12.73;10.77;;;2.70;99.90;;;;;;5016020;28;20459;-76
2021/04/24 04:01:50;;;;;;;11.33;9.97;;;2.70;99.90;;;;;;5020696;28;20930;-76
2021/04/24 04:04:17;;;;;;;13.43;10.17;;;2.70;99.90;;;;;;5022652;28;21004;-76
2021/04/24 04:06:43;;;;;;;13.50;12.10;;;2.70;99.90;;;;;;5020378;28;20932;-76
2021/04/24 04:09:09;;;;;;;12.53;11.33;;;2.80;99.90;;;;;;5033783;28;20568;-77
2021/04/24 04:11:36;;;;;;;11.30;10.13;;;2.80;99.90;;;;;;5042843;28;20447;-77
2021/04/24 04:14:03;;;;;;;13.40;10.80;;;2.80;99.90;;;;;;5034886;28;20450;-77
2021/04/24 04:16:30;;;;;;;12.27;10.97;;;2.80;99.90;;;;;;5041193;28;20447;-77
2021/04/24 04:18:56;;;;;;;11.13;10.10;;;2.80;99.90;;;;;;5035819;28;20486;-77
2021/04/24 04:21:22;;;;;;;12.87;10.97;;;2.70;99.90;;;;;;5024732;28;20448;-78
2021/04/24 04:23:49;;;;;;;11.80;10.57;;;2.80;99.90;;;;;;5032777;28;20475;-77
2021/04/24 04:26:16;;;;;;;13.37;11.20;;;2.80;99.90;;;;;;5031520;28;20442;-78
2021/04/24 04:28:43;;;;;;;12.27;11.03;;;2.80;99.90;;;;;;5032512;28;20469;-77
2021/04/24 04:31:10;;;;;;;15.07;11.00;;;2.80;99.90;;;;;;5040220;28;20461;-77
2021/04/24 04:33:37;;;;;;;14.43;11.17;;;2.80;99.90;;;;;;5033375;28;20485;-78
2021/04/24 04:36:05;;;;;;;12.53;10.80;;;2.80;99.90;;;;;;5031487;28;20433;-77
2021/04/24 04:38:31;;;;;;;11.47;10.17;;;2.80;99.90;;;;;;5022435;28;20559;-77
2021/04/24 04:40:59;;;;;;;11.43;10.20;;;2.90;99.90;;;;;;5033336;28;20461;-77
2021/04/24 04:43:25;;;;;;;12.33;11.10;;;2.90;99.90;;;;;;5033431;28;20451;-76
2021/04/24 04:45:51;;;;;;;20.80;11.53;;;2.90;99.90;;;;;;5032352;28;21044;-77
2021/04/24 04:48:19;;;;;;;12.57;11.37;;;2.90;99.90;;;;;;5033940;28;20449;-77
2021/04/24 04:50:45;;;;;;;12.37;11.00;;;3.00;99.90;;;;;;5034400;28;20445;-77
2021/04/24 04:53:12;;;;;;;13.83;11.43;;;3.10;99.90;;;;;;5034831;28;20440;-77
2021/04/24 04:55:38;;;;;;;12.40;11.20;;;3.20;99.90;;;;;;5034252;28;20439;-77
2021/04/24 04:58:05;;;;;;;14.47;11.67;;;3.20;99.90;;;;;;5027097;28;20441;-77
2021/04/24 05:00:32;;;;;;;12.53;11.33;;;3.30;99.90;;;;;;5034758;28;20798;-78
2021/04/24 05:02:58;;;;;;;12.13;10.93;;;3.40;99.90;;;;;;5031789;28;20451;-78
2021/04/24 05:05:26;;;;;;;12.43;10.63;;;3.50;99.90;;;;;;5029817;28;21029;-78
2021/04/24 05:07:53;;;;;;;12.47;10.27;;;3.80;99.90;;;;;;5031109;28;20445;-77
2021/04/24 05:10:20;;;;;;;12.90;11.43;;;4.10;99.90;;;;;;5032042;28;20529;-77
2021/04/24 05:12:47;;;;;;;14.27;10.57;;;4.50;99.90;;;;;;5030709;28;20837;-77
2021/04/24 05:15:14;;;;;;;12.07;10.27;;;4.90;99.90;;;;;;5034069;28;20507;-79
2021/04/24 05:17:41;;;;;;;15.57;10.83;;;5.40;99.90;;;;;;5031510;28;20835;-77
2021/04/24 05:20:08;;;;;;;12.67;11.00;;;5.90;99.90;;;;;;5032277;28;20474;-77
2021/04/24 05:22:36;;;;;;;12.40;11.13;;;6.10;99.90;;;;;;5031737;28;20442;-77
2021/04/24 05:25:02;;;;;;;9.80;8.77;;;6.20;99.90;;;;;;5031758;28;20499;-77
2021/04/24 05:27:28;;;;;;;13.53;8.97;;;6.50;99.90;;;;;;5031619;28;20262;-78
2021/04/24 05:29:55;;;;;;;15.13;9.40;;;6.90;99.90;;;;;;5032652;28;20231;-78
2021/04/24 05:32:21;;;;;;;12.27;10.63;;;7.30;99.90;;;;;;5032605;28;20263;-76
2021/04/24 05:34:48;;;;;;;11.50;10.40;;;7.60;99.90;;;;;;5033207;28;20204;-77
2021/04/24 05:37:14;;;;;;;12.00;10.33;;;7.80;99.90;;;;;;5034005;28;20678;-77
2021/04/24 05:39:41;;;;;;;12.67;10.73;;;7.90;99.90;;;;;;5030585;28;20225;-77
2021/04/24 05:42:09;;;;;;;11.77;10.20;;;7.80;99.90;;;;;;5033536;28;20201;-77
2021/04/24 05:44:35;;;;;;;10.10;9.10;;;7.70;99.90;;;;;;5033263;28;20721;-78
2021/04/24 05:47:02;;;;;;;10.87;9.77;;;7.80;99.90;;;;;;5037995;28;20213;-77
2021/04/24 05:49:31;;;;;;;10.03;8.93;;;7.90;99.90;;;;;;5033640;28;20235;-77
2021/04/24 05:51:58;;;;;;;10.70;9.70;;;7.90;99.90;;;;;;5032476;28;20220;-78
2021/04/24 05:54:24;;;;;;;10.80;9.80;;;8.00;99.90;;;;;;5034569;28;20201;-78
2021/04/24 05:56:51;;;;;;;11.90;9.60;;;8.10;99.90;;;;;;5035333;28;20607;-78
2021/04/24 05:59:17;;;;;;;10.10;9.10;;;8.30;99.90;;;;;;5033527;28;20292;-77
2021/04/24 06:01:44;;;;;;;10.10;9.10;;;8.30;99.90;;;;;;5033220;28;20195;-78
2021/04/24 06:04:10;;;;;;;10.63;9.60;;;8.50;99.90;;;;;;5032838;28;20214;-77
2021/04/24 06:06:36;;;;;;;9.70;8.80;;;8.40;99.90;;;;;;5033555;28;20214;-77
2021/04/24 06:09:03;;;;;;;9.53;7.93;;;8.60;99.90;;;;;;5031793;28;20221;-77
2021/04/24 06:11:29;;;;;;;11.53;8.27;;;8.50;99.90;;;;;;5032054;28;20204;-77
2021/04/24 06:13:56;;;;;;;11.13;9.43;;;8.50;99.90;;;;;;5029818;28;20200;-77
2021/04/24 06:16:22;;;;;;;10.30;9.33;;;8.70;99.90;;;;;;5049945;28;20203;-78
2021/04/24 06:18:49;;;;;;;9.77;8.00;;;9.10;99.90;;;;;;5035889;28;20212;-77
2021/04/24 06:21:15;;;;;;;7.43;6.70;;;9.30;99.90;;;;;;5029618;28;20723;-77
2021/04/24 06:23:41;;;;;;;8.73;7.83;;;9.50;99.90;;;;;;5032956;28;20200;-78
2021/04/24 06:26:08;;;;;;;9.40;8.17;;;9.70;99.90;;;;;;5027886;28;20589;-77
2021/04/24 06:28:34;;;;;;;12.27;8.67;;;9.70;99.90;;;;;;5034121;28;20215;-78
2021/04/24 06:31:01;;;;;;;9.93;9.00;;;9.80;99.90;;;;;;5032557;28;20262;-78
2021/04/24 06:33:27;;;;;;;9.87;8.93;;;9.80;99.90;;;;;;5032990;28;20199;-79
2021/04/24 06:35:54;;;;;;;10.37;9.00;;;10.00;99.90;;;;;;5030096;28;20683;-77
2021/04/24 06:38:21;;;;;;;10.77;9.73;;;10.20;99.90;;;;;;5028372;28;20212;-78
2021/04/24 06:40:47;;;;;;;11.67;9.13;;;10.30;99.90;;;;;;5030801;28;20226;-78
2021/04/24 06:43:14;;;;;;;9.60;8.70;;;10.40;99.90;;;;;;5046732;28;20199;-77
2021/04/24 06:45:40;;;;;;;10.87;8.70;;;10.40;99.90;;;;;;5031558;28;20231;-76
2021/04/24 06:48:08;;;;;;;9.50;7.90;;;10.60;99.90;;;;;;5031580;28;20206;-77
2021/04/24 06:50:35;;;;;;;11.50;7.73;;;10.90;99.90;;;;;;5031408;28;20196;-77
2021/04/24 06:53:02;;;;;;;9.50;8.60;;;11.10;99.90;;;;;;5030296;28;20283;-77
2021/04/24 06:55:28;;;;;;;11.13;9.30;;;10.90;99.90;;;;;;5031577;28;20199;-76
2021/04/24 06:57:55;;;;;;;10.63;9.17;;;11.10;99.90;;;;;;5031533;28;20193;-77
2021/04/24 07:00:22;;;;;;;11.43;9.10;;;11.30;99.90;;;;;;5030989;28;20278;-76
2021/04/24 07:02:49;;;;;;;8.03;7.13;;;11.40;99.90;;;;;;5028784;28;20749;-77
2021/04/24 07:05:17;;;;;;;8.83;7.93;;;11.60;99.90;;;;;;5031233;28;20216;-77
2021/04/24 07:07:44;;;;;;;8.13;7.30;;;11.60;99.90;;;;;;5025063;28;20224;-77
2021/04/24 07:10:12;;;;;;;8.83;7.30;;;11.60;99.90;;;;;;5031065;28;20231;-77
2021/04/24 07:12:39;;;;;;;8.80;7.90;;;11.70;99.90;;;;;;5028476;28;20284;-76
2021/04/24 07:15:07;;;;;;;8.10;7.07;;;11.80;99.90;;;;;;5023124;28;20235;-76
2021/04/24 07:17:34;;;;;;;9.10;6.60;;;12.10;99.90;;;;;;5029250;28;20198;-77
2021/04/24 07:20:00;;;;;;;10.03;6.37;;;12.30;99.90;;;;;;5027971;28;20309;-76
2021/04/24 07:22:28;;;;;;;8.33;7.30;;;12.60;99.90;;;;;;5028375;28;20198;-78
2021/04/24 07:24:54;;;;;;;9.73;6.60;;;12.90;99.90;;;;;;5032365;28;20237;-80
2021/04/24 07:27:20;;;;;;;10.80;7.80;;;13.30;99.90;;;;;;5027429;28;20261;-79
2021/04/24 07:29:46;;;;;;;8.60;6.70;;;13.40;99.90;;;;;;5023621;28;20299;-78
2021/04/24 07:32:13;;;;;;;7.37;6.47;;;13.90;99.90;;;;;;5031261;28;20686;-80
2021/04/24 07:34:39;;;;;;;8.53;7.17;;;14.50;99.90;;;;;;5034597;28;20188;-78
2021/04/24 07:37:06;;;;;;;7.97;6.37;;;14.80;99.30;;;;;;5036517;28;20203;-79
2021/04/24 07:39:33;;;;;;;7.97;5.83;;;15.20;98.80;;;;;;5034711;28;20227;-80
2021/04/24 07:41:59;;;;;;;11.60;8.20;;;15.70;98.00;;;;;;5033069;28;20201;-80
2021/04/24 07:44:26;;;;;;;7.80;6.13;;;15.80;97.50;;;;;;5034296;28;20222;-79
2021/04/24 07:46:52;;;;;;;9.13;7.10;;;15.90;97.20;;;;;;5030172;28;20691;-78
2021/04/24 07:49:19;;;;;;;9.53;7.60;;;16.20;95.70;;;;;;5026321;28;20236;-79
2021/04/24 07:51:45;;;;;;;13.23;8.33;;;16.40;95.50;;;;;;5033641;28;20201;-76
2021/04/24 07:54:13;;;;;;;9.70;7.00;;;16.50;95.50;;;;;;5026972;28;20190;-79
2021/04/24 07:56:41;;;;;;;8.43;7.17;;;16.60;95.20;;;;;;5035738;28;20201;-77
2021/04/24 07:59:09;;;;;;;14.87;9.90;;;16.80;94.10;;;;;;5029392;28;20580;-77
2021/04/24 08:01:37;;;;;;;10.17;9.13;;;16.90;94.50;;;;;;5025360;28;20685;-78
2021/04/24 08:04:04;;;;;;;9.50;8.60;;;17.20;93.30;;;;;;5022806;28;20738;-78
2021/04/24 08:06:30;;;;;;;9.60;8.70;;;17.30;92.80;;;;;;5028425;28;20225;-78
2021/04/24 08:08:56;;;;;;;11.50;10.00;;;17.30;91.80;;;;;;5029587;28;20226;-78
2021/04/24 08:11:23;;;;;;;10.03;9.10;;;17.30;91.70;;;;;;5034942;28;20202;-78
2021/04/24 08:13:50;;;;;;;10.37;9.30;;;17.20;93.40;;;;;;5034148;28;20203;-78
2021/04/24 08:16:16;;;;;;;10.47;9.43;;;17.70;92.10;;;;;;5050218;28;20235;-78
2021/04/24 08:18:43;;;;;;;10.17;9.07;;;17.70;91.00;;;;;;5025434;28;20217;-78
2021/04/24 08:21:09;;;;;;;10.07;9.17;;;17.70;90.50;;;;;;5035925;28;20194;-79
2021/04/24 08:23:36;;;;;;;13.17;9.07;;;18.00;89.50;;;;;;5033625;28;20686;-78
2021/04/24 08:26:02;;;;;;;11.90;8.67;;;18.10;89.90;;;;;;5034075;28;20224;-78
2021/04/24 08:28:28;;;;;;;13.63;10.63;;;18.10;87.90;;;;;;5029772;28;20228;-79
2021/04/24 08:30:55;;;;;;;9.60;8.53;;;18.00;85.00;;;;;;5032468;28;20207;-79
2021/04/24 08:33:22;;;;;;;10.97;9.87;;;18.20;88.10;;;;;;5029462;28;20221;-79
2021/04/24 08:35:48;;;;;;;10.07;8.97;;;18.60;88.30;;;;;;5032500;28;20253;-79
2021/04/24 08:38:14;;;;;;;10.90;9.80;;;18.60;86.30;;;;;;5023801;28;20192;-78
2021/04/24 08:40:40;;;;;;;10.50;9.27;;;18.60;85.20;;;;;;5026307;28;20209;-78
2021/04/24 08:43:07;;;;;;;9.97;9.03;;;18.60;85.80;;;;;;5029505;28;20207;-78
2021/04/24 08:45:36;;;;;;;10.97;9.23;;;19.00;85.50;;;;;;5032620;28;20235;-79
2021/04/24 08:48:04;;;;;;;11.93;9.43;;;19.00;82.80;;;;;;5029822;28;20664;-78
2021/04/24 08:50:32;;;;;;;10.70;9.60;;;19.10;83.70;;;;;;5091930;22;20253;-78
2021/04/24 08:53:00;;;;;;;9.83;8.83;;;19.40;82.00;;;;;;5065949;28;20210;-77
2021/04/24 08:55:30;;;;;;;13.03;11.77;;;19.70;84.00;;;;;;5064299;28;20200;-78
2021/04/24 08:57:57;;;;;;;11.23;9.90;;;19.30;80.40;;;;;;5072158;28;20221;-77
2021/04/24 09:00:27;;;;;;;12.13;10.23;;;19.20;82.70;;;;;;5061923;28;20230;-78
2021/04/24 09:02:55;;;;;;;8.23;7.33;;;19.30;82.90;;;;;;5068831;28;20233;-79
2021/04/24 09:05:24;;;;;;;11.27;7.00;;;19.40;81.30;;;;;;5073851;28;20246;-78
2021/04/24 09:07:58;;;;;;;11.43;9.30;;;19.60;81.90;;;;;;5070090;28;20205;-78
2021/04/24 09:10:24;;;;;;;12.47;9.10;;;19.80;78.90;;;;;;5074038;28;20611;-78
2021/04/24 09:12:51;;;;;;;9.13;8.23;;;19.60;75.80;;;;;;5072243;28;20318;-78
2021/04/24 09:15:20;;;;;;;11.00;9.57;;;19.70;77.90;;;;;;5062606;28;20210;-78
2021/04/24 09:17:56;;;;;;;10.73;9.03;;;19.70;75.00;;;;;;5071507;28;20202;-78
2021/04/24 09:20:25;;;;;;;11.97;10.00;;;19.80;78.40;;;;;;5068560;28;20238;-78
2021/04/24 09:23:05;;;;;;;10.23;9.23;;;20.00;75.40;;;;;;5066243;28;20199;-78
2021/04/24 09:25:37;;;;;;;12.53;9.80;;;19.90;74.70;;;;;;5070214;28;20214;-75
2021/04/24 09:28:06;;;;;;;11.10;9.33;;;19.60;74.00;;;;;;5057498;28;20182;-76
2021/04/24 09:30:34;;;;;;;9.63;8.70;;;19.80;77.10;;;;;;5068722;28;20214;-78
2021/04/24 09:33:10;;;;;;;11.00;9.63;;;20.00;74.20;;;;;;5070841;28;20683;-79
2021/04/24 09:35:52;;;;;;;10.93;9.50;;;20.00;75.30;;;;;;5066920;28;20284;-78
2021/04/24 09:38:21;;;;;;;14.33;10.73;;;19.70;76.10;;;;;;5061694;28;20556;-78
2021/04/24 09:41:09;;;;;;;11.03;9.53;;;19.60;75.20;;;;;;5070614;28;20219;-76
2021/04/24 09:44:03;;;;;;;11.80;9.30;;;19.70;76.90;;;;;;5064800;28;20204;-78
2021/04/24 09:46:34;;;;;;;11.53;10.00;;;20.20;78.10;;;;;;5061595;28;20206;-78
2021/04/24 09:49:12;;;;;;;12.73;9.73;;;20.10;73.00;;;;;;5072416;28;20227;-78
2021/04/24 09:51:41;;;;;;;12.83;9.97;;;20.10;77.00;;;;;;5064610;28;20199;-78
2021/04/24 09:54:08;;;;;;;10.10;9.10;;;20.20;71.90;;;;;;5053384;28;20200;-78
2021/04/24 09:56:34;;;;;;;12.23;9.43;;;19.90;75.50;;;;;;5066724;28;20291;-78
2021/04/24 09:59:03;;;;;;;10.90;9.37;;;20.10;74.70;;;;;;5079225;28;20214;-79
2021/04/24 10:01:31;;;;;;;10.47;8.93;;;20.20;74.00;;;;;;5072352;28;20192;-78
2021/04/24 10:03:58;;;;;;;12.00;8.97;;;20.50;75.20;;;;;;5066316;28;20210;-76
2021/04/24 10:06:27;;;;;;;10.23;9.03;;;20.40;72.20;;;;;;5075607;28;20221;-78
2021/04/24 10:09:10;;;;;;;10.27;9.17;;;20.40;73.20;;;;;;5087701;28;20268;-78
2021/04/24 10:11:38;;;;;;;10.57;9.20;;;20.20;69.20;;;;;;5072572;28;20257;-76
2021/04/24 10:14:05;;;;;;;10.67;9.53;;;19.80;69.70;;;;;;5067836;28;20197;-79
2021/04/24 10:16:36;;;;;;;11.23;8.93;;;19.60;68.40;;;;;;5070054;28;20268;-77
2021/04/24 10:19:07;;;;;;;12.57;9.93;;;19.50;71.30;;;;;;5064146;28;20220;-78
2021/04/24 10:21:34;;;;;;;11.00;9.50;;;19.30;69.70;;;;;;5063006;28;20202;-76
2021/04/24 10:24:01;;;;;;;9.37;8.47;;;19.30;72.10;;;;;;5069531;28;20283;-80
2021/04/24 10:26:29;;;;;;;9.73;8.73;;;19.80;73.60;;;;;;5067590;28;20221;-77
2021/04/24 10:28:58;;;;;;;11.60;9.03;;;19.70;70.40;;;;;;5066676;28;20219;-77
2021/04/24 10:31:24;;;;;;;9.43;8.43;;;19.80;68.80;;;;;;5072784;28;20196;-76
2021/04/24 10:33:51;;;;;;;10.43;9.43;;;19.90;69.70;;;;;;5071883;28;20194;-78
2021/04/24 10:36:18;;;;;;;9.50;8.50;;;19.60;68.00;;;;;;5074254;28;20651;-77
2021/04/24 10:38:46;;;;;;;11.33;9.17;;;19.60;68.20;;;;;;5071878;28;20210;-76
2021/04/24 10:41:14;;;;;;;12.17;8.90;;;19.40;67.60;;;;;;5067532;28;20205;-79
2021/04/24 10:43:41;;;;;;;9.20;7.57;;;19.00;67.70;;;;;;5069205;28;20232;-76
2021/04/24 10:46:25;;;;;;;11.87;9.03;;;19.10;70.50;;;;;;5069377;28;20229;-77
2021/04/24 10:49:14;;;;;;;11.57;8.93;;;19.10;70.10;;;;;;5061061;28;20227;-77
2021/04/24 10:52:17;;;;;;;11.83;9.07;;;19.00;69.50;;;;;;5071214;28;20569;-78
2021/04/24 10:55:04;;;;;;;10.63;8.97;;;19.00;71.30;;;;;;5059025;28;20286;-76
2021/04/24 10:57:48;;;;;;;10.27;8.77;;;19.20;70.70;;;;;;5066461;28;20256;-76
2021/04/24 11:00:17;;;;;;;10.73;9.27;;;19.10;71.50;;;;;;5059789;28;20210;-75
2021/04/24 11:02:45;;;;;;;12.47;9.33;;;19.00;70.00;;;;;;5070351;28;20206;-78
2021/04/24 11:05:34;;;;;;;10.07;9.07;;;19.00;69.10;;;;;;5070190;28;20221;-76
2021/04/24 11:08:27;;;;;;;11.10;9.60;;;19.00;71.00;;;;;;5069945;28;20231;-77
2021/04/24 11:11:05;;;;;;;10.10;9.10;;;19.00;69.00;;;;;;5070355;28;20221;-76
2021/04/24 11:13:35;;;;;;;11.80;9.20;;;19.00;71.60;;;;;;5073463;28;20699;-77
2021/04/24 11:16:04;;;;;;;8.53;7.73;;;19.10;69.10;;;;;;5065374;28;20192;-76
2021/04/24 11:18:33;;;;;;;15.73;10.30;;;19.20;70.70;;;;;;5082899;28;20581;-77
2021/04/24 11:21:04;;;;;;;12.53;9.20;;;19.20;68.10;;;;;;5058025;28;20289;-77
2021/04/24 11:23:58;;;;;;;11.10;9.87;;;18.90;68.30;;;;;;5062142;28;20194;-77
2021/04/24 11:26:57;;;;;;;10.37;9.17;;;18.80;68.30;;;;;;5065598;28;20289;-77
2021/04/24 11:29:36;;;;;;;11.80;10.10;;;18.80;69.00;;;;;;5057881;28;20286;-76
2021/04/24 11:32:10;;;;;;;10.40;8.33;;;19.00;71.30;;;;;;5070125;28;20194;-77
2021/04/24 11:34:41;;;;;;;9.80;8.90;;;19.20;70.10;;;;;;5071286;28;20192;-77
2021/04/24 11:37:26;;;;;;;12.43;7.97;;;19.40;71.10;;;;;;5059463;28;20694;-77
2021/04/24 11:40:30;;;;;;;9.80;8.87;;;19.40;68.60;;;;;;5067894;28;20726;-77
2021/04/24 11:43:08;;;;;;;9.43;8.57;;;19.30;68.80;;;;;;5067342;28;20297;-77
2021/04/24 11:45:52;;;;;;;9.73;8.73;;;19.40;68.50;;;;;;5065226;28;20263;-76
2021/04/24 11:48:58;;;;;;;11.07;9.80;;;19.50;69.40;;;;;;5063923;28;20200;-75
2021/04/24 11:51:46;;;;;;;10.23;8.83;;;19.20;66.20;;;;;;5063663;28;20198;-76
2021/04/24 11:54:21;;;;;;;11.17;9.30;;;19.10;67.70;;;;;;5067357;28;20204;-76
2021/04/24 11:56:49;;;;;;;10.03;8.97;;;19.00;65.80;;;;;;5061115;28;20271;-76
2021/04/24 11:59:23;;;;;;;9.83;8.83;;;19.00;67.60;;;;;;5063506;28;20232;-78
2021/04/24 12:01:50;;;;;;;9.00;8.10;;;19.00;68.10;;;;;;5082968;28;20199;-75
2021/04/24 12:04:25;;;;;;;9.63;8.37;;;19.10;68.90;;;;;;5082538;28;20213;-76
2021/04/24 12:07:00;;;;;;;9.17;8.27;;;19.30;67.90;;;;;;5070720;28;20676;-76
2021/04/24 12:09:26;;;;;;;10.37;9.07;;;19.30;67.50;;;;;;5077247;28;20226;-77
2021/04/24 12:11:58;;;;;;;10.63;9.23;;;19.30;67.40;;;;;;5080735;28;20204;-76
2021/04/24 12:14:26;;;;;;;13.93;10.80;;;19.20;67.80;;;;;;5085728;28;20210;-76
2021/04/24 12:16:52;;;;;;;10.03;9.03;;;19.30;66.50;;;;;;5074624;28;20206;-76
2021/04/24 12:19:28;;;;;;;12.57;8.30;;;19.40;65.30;;;;;;5068326;28;20219;-76
2021/04/24 12:22:14;;;;;;;10.13;8.50;;;19.40;67.10;;;;;;5062540;28;20295;-76
2021/04/24 12:25:06;;;;;;;11.23;8.53;;;19.50;66.80;;;;;;5066509;28;20218;-76
2021/04/24 12:27:38;;;;;;;8.90;7.73;;;19.50;64.80;;;;;;5071244;28;20271;-76
2021/04/24 12:30:16;;;;;;;8.33;7.53;;;19.50;64.70;;;;;;5069829;28;20215;-74
2021/04/24 12:32:45;;;;;;;7.97;7.20;;;19.50;63.30;;;;;;5074027;28;20190;-76
2021/04/24 12:35:23;;;;;;;7.97;7.17;;;19.60;64.00;;;;;;5072677;28;20194;-76
2021/04/24 12:38:00;;;;;;;8.03;7.30;;;19.60;63.70;;;;;;5064621;28;20200;-79
2021/04/24 12:40:27;;;;;;;10.20;7.40;;;19.60;63.80;;;;;;5067736;28;20308;-76
2021/04/24 12:43:01;;;;;;;11.07;8.73;;;19.60;61.70;;;;;;5064528;28;20214;-76
2021/04/24 12:45:28;;;;;;;8.53;7.63;;;19.40;61.60;;;;;;5070474;28;20212;-76
2021/04/24 12:47:54;;;;;;;10.50;8.17;;;19.40;64.60;;;;;;5072546;28;20209;-76
2021/04/24 12:50:25;;;;;;;9.37;8.47;;;19.30;62.00;;;;;;5072178;28;20239;-75